Hampton, Atlanta South Regional Airport/Tara Field (KHMP)

NameAtlanta South Regional Airport/Tara Field
CityHampton
CountryUnited States
ICAOKHMP
IATA
Altitude266 m
CoordinatesGoogle Map
Live Air TrafficLiveATC.net
METARKHMP 112255Z AUTO 31003KT 10SM CLR 05/00 A3026 RMK AO2 T00520000
2018-12-11 22:55:00 Wind: West-Northwest (310°) 1.54 m/s - Visibility: 16093.4 m - Temperature: 5 °C - Dew point: 0 °C - Humidity: 70.4% - Pressure: 1024.72 hPa

Sorry, no flights used the airport in this database.